Time;durP1;ratioP1;P1;durP2;ratioP2;P2;SDS_P1;SDS_P2;PMS_P1;PMS_P2;Temp;Humidity;BMP_temperature;BMP_pressure;BME280_temperature;BME280_humidity;BME280_pressure;Samples;Min_cycle;Max_cycle;Signal;HPM_P1;HPM_P2
2022/10/16 00:00:40;;;;;;;18.50;7.87;;;;;;;41.53;34.78;101124.53;5053505;28;20419;-71
2022/10/16 00:03:07;;;;;;;20.13;7.70;;;;;;;41.71;34.47;101134.22;5073167;28;20421;-71
2022/10/16 00:05:37;;;;;;;33.83;8.50;;;;;;;41.75;34.31;101129.78;5072761;28;20405;-71
2022/10/16 00:08:03;;;;;;;20.47;9.00;;;;;;;42.22;33.92;101129.72;5054773;28;20422;-69
2022/10/16 00:10:29;;;;;;;13.77;7.40;;;;;;;42.22;33.65;101123.47;5038579;28;20563;-69
2022/10/16 00:12:55;;;;;;;34.67;7.80;;;;;;;42.37;33.60;101123.69;5054702;28;20965;-69
2022/10/16 00:15:21;;;;;;;17.57;7.80;;;;;;;42.24;33.73;101119.28;5054606;28;20417;-69
2022/10/16 00:17:47;;;;;;;13.80;7.47;;;;;;;41.87;34.00;101131.81;5037961;28;20896;-69
2022/10/16 00:20:13;;;;;;;26.53;7.27;;;;;;;41.67;34.00;101129.75;5072893;28;20487;-70
2022/10/16 00:22:39;;;;;;;17.57;9.37;;;;;;;41.67;34.58;101127.81;5054965;28;20603;-70
2022/10/16 00:25:06;;;;;;;13.77;7.20;;;;;;;41.80;34.00;101124.13;5038213;28;20930;-69
2022/10/16 00:27:32;;;;;;;24.70;9.40;;;;;;;41.48;34.61;101109.16;5054464;28;20416;-69
2022/10/16 00:29:58;;;;;;;17.73;7.50;;;;;;;41.92;33.87;101104.34;5054848;28;20459;-70
2022/10/16 00:32:24;;;;;;;22.80;7.63;;;;;;;41.93;33.94;101105.16;5054959;28;20426;-69
2022/10/16 00:34:50;;;;;;;15.37;8.73;;;;;;;42.08;33.95;101105.41;5038006;28;20442;-70
2022/10/16 00:37:16;;;;;;;18.40;9.17;;;;;;;41.67;34.28;101106.03;5054491;28;20940;-69
2022/10/16 00:39:42;;;;;;;26.40;10.60;;;;;;;41.99;34.20;101098.38;5054385;28;20925;-70
2022/10/16 00:42:16;;;;;;;21.53;8.63;;;;;;;41.54;34.76;101101.59;5054234;28;20458;-70
2022/10/16 00:44:45;;;;;;;16.80;6.70;;;;;;;41.69;34.50;101098.34;5054419;28;20437;-70
2022/10/16 00:47:17;;;;;;;12.03;6.40;;;;;;;41.87;33.93;101088.22;5054237;28;20428;-69
2022/10/16 00:49:43;;;;;;;9.50;7.00;;;;;;;41.20;34.77;101081.50;5037692;28;20421;-70
2022/10/16 00:52:10;;;;;;;17.40;8.90;;;;;;;41.66;34.35;101073.69;5038252;28;20475;-69
2022/10/16 00:54:36;;;;;;;12.33;7.10;;;;;;;41.68;34.25;101069.53;5076491;28;20464;-69
2022/10/16 00:57:06;;;;;;;15.07;8.60;;;;;;;41.52;34.94;101073.91;5058343;28;20450;-70
2022/10/16 00:59:38;;;;;;;15.73;8.17;;;;;;;41.49;34.70;101066.38;5076431;28;20394;-70
2022/10/16 01:02:06;;;;;;;22.17;9.00;;;;;;;41.59;34.64;101066.81;5058658;28;20516;-69
2022/10/16 01:04:42;;;;;;;24.87;9.20;;;;;;;41.42;34.99;101068.81;5058109;28;20421;-69
2022/10/16 01:07:29;;;;;;;16.30;8.63;;;;;;;41.49;34.87;101064.44;5058194;28;20451;-70
2022/10/16 01:10:19;;;;;;;14.90;7.83;;;;;;;41.76;34.57;101057.00;5058062;28;20428;-70
2022/10/16 01:13:06;;;;;;;11.57;7.00;;;;;;;41.89;34.19;101052.47;5057824;28;21031;-69
2022/10/16 01:15:38;;;;;;;11.50;7.50;;;;;;;42.12;33.69;101060.00;5044208;28;20428;-69
2022/10/16 01:18:19;;;;;;;22.10;9.17;;;;;;;41.71;34.08;101057.16;5057799;28;20410;-70
2022/10/16 01:20:58;;;;;;;11.80;8.30;;;;;;;41.61;34.27;101048.22;5057813;28;20484;-69
2022/10/16 01:23:24;;;;;;;16.23;8.57;;;;;;;41.53;34.15;101045.56;5057340;28;20508;-69
2022/10/16 01:26:08;;;;;;;18.37;7.57;;;;;;;41.63;34.41;101045.19;5037671;28;20518;-69
2022/10/16 01:29:00;;;;;;;23.90;8.10;;;;;;;41.59;34.40;101044.25;5055851;28;20470;-69
2022/10/16 01:31:29;;;;;;;21.37;10.50;;;;;;;41.58;34.39;101043.44;5037371;28;20465;-69
2022/10/16 01:34:06;;;;;;;14.20;6.93;;;;;;;41.62;34.62;101029.97;5037644;28;20542;-69
2022/10/16 01:36:51;;;;;;;36.77;11.20;;;;;;;41.54;34.74;101028.09;5021126;28;20422;-70
2022/10/16 01:39:23;;;;;;;16.47;8.63;;;;;;;41.64;34.58;101029.66;5037493;28;20517;-69
2022/10/16 01:42:15;;;;;;;16.30;7.77;;;;;;;41.74;34.56;101030.13;5037513;28;20477;-71
2022/10/16 01:44:42;;;;;;;25.43;8.23;;;;;;;41.74;34.38;101030.13;5037504;28;20426;-70
2022/10/16 01:47:11;;;;;;;22.23;8.13;;;;;;;41.55;34.72;101022.31;5021057;28;20414;-69
2022/10/16 01:49:39;;;;;;;15.43;8.43;;;;;;;41.70;34.55;101029.13;5055609;28;20423;-69
2022/10/16 01:52:10;;;;;;;15.03;8.10;;;;;;;41.45;34.94;101017.25;5032270;28;20812;-70
2022/10/16 01:54:41;;;;;;;18.13;8.67;;;;;;;41.55;34.88;101018.78;5037286;28;20419;-69
2022/10/16 01:57:08;;;;;;;16.90;7.33;;;;;;;41.39;35.26;101021.28;5021240;28;20411;-69
2022/10/16 01:59:40;;;;;;;17.53;8.03;;;;;;;41.27;35.58;101019.19;5037500;28;20517;-69
2022/10/16 02:02:09;;;;;;;17.90;8.23;;;;;;;41.89;34.13;101017.03;5037613;28;20727;-70
2022/10/16 02:04:45;;;;;;;11.87;7.60;;;;;;;41.64;34.90;101013.31;5037104;28;20395;-69
2022/10/16 02:07:12;;;;;;;12.87;6.83;;;;;;;41.67;34.50;101009.91;5053664;28;20418;-69
2022/10/16 02:09:38;;;;;;;28.17;12.63;;;;;;;41.51;35.07;101009.69;5036777;28;20903;-69
2022/10/16 02:12:19;;;;;;;22.37;9.80;;;;;;;41.17;35.57;101005.94;5035208;28;20564;-69
2022/10/16 02:14:45;;;;;;;11.53;6.73;;;;;;;41.31;35.04;101006.53;5056826;28;20467;-70
2022/10/16 02:17:13;;;;;;;20.07;8.73;;;;;;;41.82;34.09;100998.50;5057269;28;20475;-69
2022/10/16 02:19:40;;;;;;;14.17;7.33;;;;;;;41.57;34.38;101002.94;5056664;28;20432;-69
2022/10/16 02:22:08;;;;;;;18.57;8.97;;;;;;;41.75;34.41;100984.59;5040096;28;20490;-69
2022/10/16 02:24:58;;;;;;;18.90;9.43;;;;;;;41.81;33.99;100988.72;5064923;28;20494;-70
2022/10/16 02:27:53;;;;;;;13.87;9.40;;;;;;;41.73;33.99;100987.59;5036636;28;20902;-69
2022/10/16 02:30:32;;;;;;;14.30;6.60;;;;;;;41.52;34.49;100981.31;5036601;28;20780;-69
2022/10/16 02:33:01;;;;;;;10.80;7.83;;;;;;;41.83;34.15;100987.25;5036470;28;20426;-70
2022/10/16 02:35:27;;;;;;;24.83;9.60;;;;;;;41.85;34.42;100986.91;5036741;28;20529;-69
2022/10/16 02:37:55;;;;;;;17.93;8.90;;;;;;;41.67;34.85;100999.00;5036257;28;20430;-70
2022/10/16 02:40:22;;;;;;;31.77;10.27;;;;;;;41.86;34.22;100993.97;5019917;28;20423;-69
2022/10/16 02:42:52;;;;;;;17.20;9.30;;;;;;;41.49;34.82;100996.38;5036299;28;20454;-69
2022/10/16 02:45:18;;;;;;;20.17;7.27;;;;;;;41.60;34.89;100988.63;5019810;28;20419;-69
2022/10/16 02:47:44;;;;;;;17.00;7.60;;;;;;;41.87;34.48;100990.13;5036595;28;20793;-69
2022/10/16 02:50:10;;;;;;;15.10;7.40;;;;;;;41.60;34.80;101002.25;5054608;28;20395;-70
2022/10/16 02:52:36;;;;;;;14.93;8.43;;;;;;;41.77;34.46;100998.69;5047338;28;20513;-70
2022/10/16 02:55:02;;;;;;;15.37;6.80;;;;;;;41.95;33.75;100999.38;5036410;28;20513;-69
2022/10/16 02:57:28;;;;;;;18.23;8.40;;;;;;;41.91;33.69;101001.16;5036038;28;20419;-69
2022/10/16 02:59:54;;;;;;;17.63;8.60;;;;;;;41.84;33.70;101007.13;5054126;28;20553;-70
2022/10/16 03:02:20;;;;;;;22.10;9.00;;;;;;;41.74;34.08;101008.31;5053471;28;20569;-70
2022/10/16 03:04:46;;;;;;;16.77;7.10;;;;;;;41.60;34.29;101007.72;5019559;28;20422;-72
2022/10/16 03:07:12;;;;;;;14.57;8.97;;;;;;;41.39;34.80;101001.41;5036088;28;20426;-72
2022/10/16 03:09:38;;;;;;;18.30;7.37;;;;;;;41.54;34.46;101001.66;5035747;28;20421;-70
2022/10/16 03:12:05;;;;;;;18.53;7.57;;;;;;;41.54;34.64;101006.28;5035983;28;20430;-69
2022/10/16 03:14:32;;;;;;;17.03;7.73;;;;;;;41.64;34.68;101003.22;5053600;28;20395;-70
2022/10/16 03:16:58;;;;;;;24.33;8.63;;;;;;;41.44;35.00;101004.75;5053128;28;20431;-69
2022/10/16 03:19:24;;;;;;;23.67;8.50;;;;;;;41.22;35.03;101003.03;5035660;28;20561;-72
2022/10/16 03:21:50;;;;;;;16.73;12.07;;;;;;;41.41;34.75;100999.94;5043933;28;20468;-69
2022/10/16 03:24:16;;;;;;;15.83;7.60;;;;;;;41.49;34.87;101001.81;5045430;28;20450;-69
2022/10/16 03:26:42;;;;;;;25.37;8.20;;;;;;;41.31;34.66;100998.38;5055954;28;20463;-70
2022/10/16 03:29:08;;;;;;;20.70;10.03;;;;;;;41.24;34.69;101000.78;5038765;28;20432;-69
2022/10/16 03:31:34;;;;;;;26.50;11.73;;;;;;;40.88;35.03;101006.63;5073464;28;20479;-72
2022/10/16 03:34:00;;;;;;;24.03;9.40;;;;;;;41.70;34.39;101004.63;5055231;28;20433;-69
2022/10/16 03:36:26;;;;;;;18.43;8.43;;;;;;;41.31;34.88;101001.09;5055249;28;20425;-69
2022/10/16 03:38:52;;;;;;;21.80;9.60;;;;;;;41.32;34.65;101008.16;5055300;28;20438;-69
2022/10/16 03:41:18;;;;;;;19.87;9.57;;;;;;;41.14;35.06;101016.69;5054986;28;20546;-69
2022/10/16 03:43:43;;;;;;;19.70;7.80;;;;;;;41.33;34.75;101023.38;5055132;28;20452;-69
2022/10/16 03:46:09;;;;;;;18.97;8.23;;;;;;;41.24;34.73;101029.94;5055009;28;20417;-70
2022/10/16 03:48:35;;;;;;;21.60;8.50;;;;;;;41.00;35.15;101014.16;5072861;28;20441;-72
2022/10/16 03:51:01;;;;;;;18.97;9.03;;;;;;;41.14;35.21;101020.22;5050592;28;20438;-70
2022/10/16 03:53:27;;;;;;;20.07;9.03;;;;;;;40.78;35.81;101018.66;5043695;28;20546;-69
2022/10/16 03:55:53;;;;;;;18.53;8.93;;;;;;;40.85;35.49;101018.16;5035277;28;20870;-69
2022/10/16 03:58:20;;;;;;;18.50;8.80;;;;;;;41.17;35.17;101019.53;5052976;28;20518;-69
2022/10/16 04:00:47;;;;;;;22.63;11.03;;;;;;;40.67;35.79;101014.66;5034813;28;20536;-70
2022/10/16 04:03:13;;;;;;;24.80;10.93;;;;;;;40.95;35.38;101014.34;5034852;28;20446;-69
2022/10/16 04:05:40;;;;;;;18.93;9.00;;;;;;;40.39;36.22;101021.50;5035320;28;20399;-69
2022/10/16 04:08:06;;;;;;;24.23;10.90;;;;;;;40.95;35.26;101014.34;5018493;28;20419;-69
2022/10/16 04:10:32;;;;;;;23.00;9.20;;;;;;;41.15;35.66;101012.84;5053017;28;20403;-70
2022/10/16 04:12:58;;;;;;;20.83;10.13;;;;;;;41.09;35.43;101020.38;5034667;28;20426;-70
2022/10/16 04:15:25;;;;;;;15.70;7.43;;;;;;;41.22;35.37;101024.03;5052907;28;20411;-69
2022/10/16 04:17:51;;;;;;;13.93;8.40;;;;;;;41.17;35.49;101019.53;5051227;28;20480;-69
2022/10/16 04:20:18;;;;;;;19.60;9.37;;;;;;;41.08;35.43;101022.31;5018251;28;20484;-72
2022/10/16 04:22:44;;;;;;;14.33;9.10;;;;;;;41.18;35.20;101021.13;5034519;28;20458;-69
2022/10/16 04:25:11;;;;;;;23.70;9.47;;;;;;;41.27;35.30;101010.25;5067434;28;20418;-69
2022/10/16 04:27:38;;;;;;;18.93;8.83;;;;;;;41.40;34.92;101025.59;5054365;28;20480;-70
2022/10/16 04:30:05;;;;;;;15.23;9.27;;;;;;;41.70;34.59;101034.59;5037811;28;20429;-70
2022/10/16 04:32:31;;;;;;;12.87;9.00;;;;;;;41.83;34.55;101036.28;5037957;28;20552;-69
2022/10/16 04:34:57;;;;;;;12.87;8.10;;;;;;;41.91;34.24;101045.53;5054466;28;20524;-69
2022/10/16 04:37:27;;;;;;;17.13;8.77;;;;;;;41.88;34.71;101043.50;5072687;28;20444;-70
2022/10/16 04:39:53;;;;;;;20.20;7.43;;;;;;;42.05;34.09;101050.72;5054421;28;20422;-69
2022/10/16 04:42:20;;;;;;;21.50;8.80;;;;;;;41.99;34.50;101054.78;5072527;28;20839;-70
2022/10/16 04:44:46;;;;;;;15.00;9.50;;;;;;;41.83;34.42;101058.09;5038444;28;20398;-69
2022/10/16 04:47:12;;;;;;;16.23;10.00;;;;;;;41.85;34.22;101057.75;5054263;28;20508;-69
2022/10/16 04:49:39;;;;;;;15.93;11.63;;;;;;;41.96;34.71;101058.19;5054333;28;20425;-69
2022/10/16 04:52:05;;;;;;;27.63;8.90;;;;;;;41.34;35.23;101060.34;5054354;28;20938;-69
2022/10/16 04:54:31;;;;;;;17.47;8.83;;;;;;;41.53;35.05;101072.78;5053803;28;20421;-69
2022/10/16 04:56:57;;;;;;;14.10;9.73;;;;;;;41.82;34.42;101069.31;5069090;28;20467;-70
2022/10/16 04:59:23;;;;;;;15.10;8.90;;;;;;;41.89;34.54;101074.25;5072269;28;20438;-70
2022/10/16 05:01:49;;;;;;;25.13;9.33;;;;;;;41.68;34.83;101068.69;5053950;28;20477;-69
2022/10/16 05:04:16;;;;;;;19.30;9.70;;;;;;;41.43;35.14;101081.28;5054187;28;20450;-69
2022/10/16 05:06:42;;;;;;;19.40;9.00;;;;;;;41.73;34.88;101065.81;5054097;28;20421;-70
2022/10/16 05:09:09;;;;;;;14.97;8.10;;;;;;;41.48;35.08;101075.69;5054411;28;20422;-69
2022/10/16 05:11:35;;;;;;;14.30;8.33;;;;;;;41.74;34.51;101079.16;5054109;28;20420;-69
2022/10/16 05:14:01;;;;;;;17.00;10.70;;;;;;;41.69;34.83;101075.78;5054109;28;20541;-69
2022/10/16 05:16:27;;;;;;;16.00;8.33;;;;;;;41.77;34.33;101081.19;5054035;28;20480;-70
2022/10/16 05:18:54;;;;;;;16.77;8.83;;;;;;;41.60;35.02;101092.13;5053997;28;20433;-69
2022/10/16 05:21:20;;;;;;;22.47;8.43;;;;;;;41.57;34.56;101081.91;5053943;28;20453;-69
2022/10/16 05:23:46;;;;;;;19.83;9.30;;;;;;;41.50;34.92;101093.31;5053812;28;20898;-69
2022/10/16 05:26:12;;;;;;;23.30;9.20;;;;;;;41.87;34.36;101085.50;5054184;28;20922;-69
2022/10/16 05:28:38;;;;;;;20.13;12.43;;;;;;;41.75;34.43;101097.09;5053951;28;20421;-70
2022/10/16 05:31:09;;;;;;;21.20;8.77;;;;;;;41.69;34.77;101108.47;5044680;28;20492;-70
2022/10/16 05:33:35;;;;;;;15.33;10.03;;;;;;;41.73;34.54;101103.94;5036907;28;20531;-70
2022/10/16 05:36:07;;;;;;;15.73;9.57;;;;;;;41.65;34.85;101107.50;5053409;28;20457;-69
2022/10/16 06:30:39;;;;;;;23.10;12.37;;;;;;;40.37;36.81;101141.44;5092956;27;20520;-70
2022/10/16 06:33:08;;;;;;;27.70;13.90;;;;;;;40.51;36.29;101138.63;5068603;28;20523;-71
2022/10/16 06:35:34;;;;;;;26.03;12.63;;;;;;;40.38;36.56;101145.75;5069357;28;20422;-68
2022/10/16 06:38:00;;;;;;;20.93;12.07;;;;;;;39.86;37.42;101142.06;5068563;28;20444;-68
2022/10/16 06:40:26;;;;;;;17.13;13.50;;;;;;;40.18;36.94;101149.06;5067367;28;20937;-69
2022/10/16 06:42:55;;;;;;;22.93;12.47;;;;;;;40.72;36.22;101142.34;5067187;28;20422;-70
2022/10/16 06:45:21;;;;;;;18.17;11.73;;;;;;;40.68;36.42;101144.06;5045931;28;20479;-69
2022/10/16 06:47:49;;;;;;;16.17;11.10;;;;;;;41.03;35.61;101142.19;5061919;28;20422;-72
2022/10/16 06:50:15;;;;;;;23.50;13.63;;;;;;;40.55;36.22;101153.19;5067348;28;20525;-71
2022/10/16 06:52:41;;;;;;;24.33;14.10;;;;;;;40.95;35.92;101153.09;5065719;28;20997;-70
2022/10/16 06:55:08;;;;;;;19.30;12.77;;;;;;;40.90;35.76;101148.63;5066011;28;20491;-70
2022/10/16 06:57:33;;;;;;;26.00;14.60;;;;;;;40.86;35.97;101152.25;5050156;28;20521;-69
2022/10/16 06:59:59;;;;;;;31.40;13.87;;;;;;;41.01;35.45;101157.25;5072624;28;20603;-68
2022/10/16 07:02:25;;;;;;;26.10;15.27;;;;;;;41.33;34.87;101161.41;5066399;28;20430;-70
2022/10/16 07:04:51;;;;;;;22.93;14.47;;;;;;;41.40;34.90;101164.44;5065986;28;20822;-70
2022/10/16 07:07:17;;;;;;;27.37;13.57;;;;;;;41.53;34.87;101165.38;5066458;28;20461;-70
2022/10/16 07:09:43;;;;;;;24.67;15.50;;;;;;;41.40;34.77;101169.88;5068617;28;20445;-70
2022/10/16 07:12:09;;;;;;;24.80;14.13;;;;;;;41.57;34.73;101169.06;5069874;28;20457;-70
2022/10/16 07:14:35;;;;;;;23.17;13.70;;;;;;;41.34;34.78;101185.59;5068014;28;20446;-69
2022/10/16 07:17:02;;;;;;;31.83;14.53;;;;;;;40.88;35.22;101188.09;5067092;28;20460;-72
2022/10/16 07:19:28;;;;;;;21.27;14.27;;;;;;;41.47;34.54;101199.34;5066222;28;20458;-71
2022/10/16 07:21:54;;;;;;;21.80;13.50;;;;;;;41.49;34.17;101189.72;5066525;28;20562;-70
2022/10/16 07:24:20;;;;;;;25.70;11.97;;;;;;;41.43;34.65;101191.00;5062399;28;20525;-70
2022/10/16 07:26:46;;;;;;;20.40;12.50;;;;;;;41.61;34.33;101189.06;5062079;28;20906;-71
2022/10/16 07:29:18;;;;;;;25.60;12.47;;;;;;;41.50;34.40;101191.34;5063287;28;20522;-72
2022/10/16 07:31:45;;;;;;;20.40;13.70;;;;;;;41.53;33.66;101187.16;5043092;28;20934;-74
2022/10/16 07:34:12;;;;;;;19.07;12.93;;;;;;;41.89;33.80;101184.03;5052878;28;20430;-68
2022/10/16 07:36:38;;;;;;;14.73;12.63;;;;;;;42.02;33.81;101185.75;5031604;28;20430;-73
2022/10/16 07:39:04;;;;;;;24.33;10.70;;;;;;;41.76;33.90;101180.41;5052432;28;20804;-71
2022/10/16 07:41:32;;;;;;;21.50;10.57;;;;;;;41.88;33.52;101192.53;5052185;28;20449;-72
2022/10/16 07:44:02;;;;;;;20.47;12.03;;;;;;;42.06;33.08;101188.63;5045284;28;20423;-72
2022/10/16 07:46:28;;;;;;;17.27;10.80;;;;;;;41.97;33.40;101190.56;5044837;28;20439;-78
2022/10/16 07:48:54;;;;;;;19.20;11.20;;;;;;;42.02;33.39;101193.13;5051738;28;20458;-76
2022/10/16 07:51:23;;;;;;;16.43;11.90;;;;;;;42.16;33.32;101195.63;5050759;28;20454;-79
2022/10/16 07:53:50;;;;;;;14.90;10.73;;;;;;;41.91;33.17;101192.69;5050986;28;20461;-76
2022/10/16 07:56:18;;;;;;;21.70;11.40;;;;;;;41.77;33.73;101192.09;5050623;28;20492;-72
2022/10/16 07:58:44;;;;;;;21.60;12.53;;;;;;;41.71;33.29;101191.44;5035864;28;20934;-73
2022/10/16 08:01:13;;;;;;;22.30;12.90;;;;;;;41.91;33.43;101191.88;5033189;28;21017;-69
2022/10/16 08:03:43;;;;;;;21.17;13.30;;;;;;;42.27;33.20;101191.44;5020946;28;20423;-69
2022/10/16 08:06:09;;;;;;;17.63;13.50;;;;;;;42.44;32.98;101190.53;5045076;28;20449;-72
2022/10/16 08:08:35;;;;;;;16.60;11.07;;;;;;;42.52;33.09;101187.75;5051691;28;20515;-73
2022/10/16 08:11:03;;;;;;;25.13;11.97;;;;;;;42.57;32.75;101197.69;5051451;28;20439;-70
2022/10/16 08:13:30;;;;;;;18.70;8.93;;;;;;;42.42;33.17;101206.41;5051490;28;20469;-72
2022/10/16 08:15:56;;;;;;;15.23;10.60;;;;;;;42.39;32.86;101216.06;5052432;28;20506;-72
2022/10/16 08:18:23;;;;;;;26.83;8.80;;;;;;;42.37;32.93;101213.69;5052371;28;20431;-71
2022/10/16 08:20:57;;;;;;;17.33;9.40;;;;;;;42.36;32.67;101208.56;5052056;28;20806;-72
2022/10/16 08:23:23;;;;;;;19.33;13.03;;;;;;;42.39;32.79;101208.69;5049743;28;20446;-72
2022/10/16 08:25:49;;;;;;;19.63;10.20;;;;;;;42.51;32.66;101213.44;5052705;28;20541;-70
2022/10/16 08:28:16;;;;;;;20.73;10.57;;;;;;;42.53;32.34;101215.81;5053500;28;20542;-70
2022/10/16 08:30:42;;;;;;;15.77;9.53;;;;;;;42.56;32.10;101215.19;5059961;28;20491;-70
2022/10/16 08:33:08;;;;;;;14.93;10.37;;;;;;;42.60;32.49;101213.41;5053449;28;20431;-70
2022/10/16 08:35:34;;;;;;;28.33;11.80;;;;;;;42.62;32.12;101211.97;5052511;28;20426;-70
2022/10/16 08:38:02;;;;;;;16.00;11.43;;;;;;;42.70;32.28;101215.75;5052011;28;20466;-70
2022/10/16 08:40:32;;;;;;;15.83;10.87;;;;;;;42.80;31.88;101222.75;5053066;28;20428;-69
2022/10/16 08:43:20;;;;;;;25.30;10.30;;;;;;;42.84;31.92;101226.41;5021290;28;20479;-69
2022/10/16 08:46:02;;;;;;;18.10;11.10;;;;;;;42.51;32.21;101227.06;5052307;28;20411;-69
2022/10/16 08:48:47;;;;;;;14.90;9.90;;;;;;;42.78;32.03;101220.34;5050900;28;21004;-69
2022/10/16 08:51:22;;;;;;;16.53;9.83;;;;;;;42.64;31.73;101228.78;5051641;28;20500;-69
2022/10/16 08:53:56;;;;;;;18.17;11.93;;;;;;;42.51;32.27;101231.72;5039150;28;20536;-69
2022/10/16 08:56:22;;;;;;;18.00;10.57;;;;;;;42.60;32.34;101235.22;5035170;28;20442;-68
2022/10/16 08:58:49;;;;;;;16.03;9.97;;;;;;;42.60;32.65;101236.03;5050037;28;20429;-68
2022/10/16 09:01:19;;;;;;;17.20;9.90;;;;;;;42.74;32.14;101224.88;5032003;28;20817;-68
2022/10/16 09:04:25;;;;;;;19.73;9.70;;;;;;;42.77;31.86;101223.41;5043596;28;20420;-69
2022/10/16 09:07:03;;;;;;;12.13;8.53;;;;;;;42.84;31.63;101229.91;5050724;28;20419;-70
2022/10/16 09:09:55;;;;;;;20.43;11.57;;;;;;;42.95;31.59;101233.06;5051860;28;20466;-68
2022/10/16 09:12:53;;;;;;;20.40;9.70;;;;;;;42.66;32.28;101231.16;5050628;28;20817;-69
2022/10/16 09:15:39;;;;;;;17.07;9.77;;;;;;;42.52;32.75;101234.13;5025531;28;20435;-70
2022/10/16 09:18:10;;;;;;;18.73;11.30;;;;;;;42.79;32.32;101237.53;5052596;28;20423;-69
2022/10/16 09:20:59;;;;;;;33.00;12.37;;;;;;;42.33;32.84;101245.44;5042607;28;20468;-70
2022/10/16 09:23:31;;;;;;;24.40;12.87;;;;;;;42.13;33.57;101246.16;5050151;28;20501;-68
2022/10/16 09:25:59;;;;;;;27.87;12.50;;;;;;;42.13;33.55;101243.44;5052274;28;20506;-69
2022/10/16 09:28:26;;;;;;;14.73;9.37;;;;;;;42.62;33.04;101249.34;5033308;28;20956;-68
2022/10/16 09:30:54;;;;;;;18.17;9.23;;;;;;;42.24;33.51;101244.69;5061540;28;20420;-69
2022/10/16 09:33:25;;;;;;;17.60;11.63;;;;;;;42.17;33.71;101233.47;5052192;28;20413;-69
2022/10/16 09:35:54;;;;;;;17.17;10.30;;;;;;;42.23;33.21;101242.28;5018356;28;20509;-68
2022/10/16 09:38:32;;;;;;;25.57;12.80;;;;;;;42.26;33.28;101247.88;5028409;28;20423;-70
2022/10/16 09:41:22;;;;;;;24.27;11.53;;;;;;;42.02;33.70;101248.44;5030372;28;20417;-70
2022/10/16 09:43:57;;;;;;;18.97;12.60;;;;;;;42.00;33.73;101239.00;5048643;28;20438;-70
2022/10/16 09:46:38;;;;;;;17.47;10.70;;;;;;;42.60;32.96;101236.03;5048624;28;20418;-70
2022/10/16 09:49:18;;;;;;;16.07;9.70;;;;;;;42.51;32.75;101231.72;5050244;28;20493;-70
2022/10/16 09:51:45;;;;;;;20.60;11.60;;;;;;;42.54;33.30;101234.59;5052082;28;20430;-72
2022/10/16 09:54:10;;;;;;;21.13;11.60;;;;;;;42.26;33.35;101228.00;5050741;28;20472;-71
2022/10/16 09:56:39;;;;;;;19.00;10.50;;;;;;;42.03;33.48;101228.22;5050057;28;20443;-70
2022/10/16 09:59:13;;;;;;;19.77;10.93;;;;;;;41.96;34.07;101214.31;5050962;28;20179;-71
2022/10/16 10:01:42;;;;;;;34.53;13.50;;;;;;;41.59;34.86;101213.09;5049626;28;21033;-70
2022/10/16 10:04:11;;;;;;;27.03;11.70;;;;;;;41.71;34.86;101210.50;5052158;28;20426;-71
2022/10/16 10:06:43;;;;;;;25.87;10.87;;;;;;;41.73;34.77;101197.34;5050380;28;20430;-70
2022/10/16 10:09:34;;;;;;;20.00;10.40;;;;;;;42.37;33.89;101201.97;5052036;28;20633;-71
2022/10/16 10:12:03;;;;;;;16.23;10.60;;;;;;;42.07;33.88;101192.94;5051890;28;20419;-70
2022/10/16 10:14:44;;;;;;;23.40;12.23;;;;;;;41.44;34.91;101191.84;5048708;28;20418;-72
2022/10/16 10:17:21;;;;;;;20.93;12.10;;;;;;;41.73;34.55;101191.91;5045376;28;20829;-71
2022/10/16 10:20:13;;;;;;;16.77;13.53;;;;;;;42.10;34.14;101186.81;5049135;28;20418;-72
2022/10/16 10:22:44;;;;;;;16.90;11.77;;;;;;;42.33;33.72;101185.47;5036743;28;20454;-71
2022/10/16 10:25:27;;;;;;;14.03;10.93;;;;;;;42.37;33.55;101178.22;5032536;28;20470;-70
2022/10/16 10:28:30;;;;;;;18.90;12.30;;;;;;;42.21;33.46;101187.28;5040633;28;20415;-71
2022/10/16 10:31:20;;;;;;;23.43;11.50;;;;;;;41.87;34.05;101178.13;5024526;28;20493;-71
2022/10/16 10:33:58;;;;;;;24.63;11.67;;;;;;;42.52;33.08;101170.59;5004160;28;20457;-71
2022/10/16 10:36:39;;;;;;;21.43;9.63;;;;;;;42.88;33.01;101159.13;5012535;28;20478;-71
2022/10/16 10:39:31;;;;;;;24.20;11.10;;;;;;;42.83;32.82;101156.59;5012145;28;20440;-71
2022/10/16 10:42:00;;;;;;;36.07;13.87;;;;;;;42.57;33.23;101156.75;5007738;28;20414;-71
2022/10/16 10:44:37;;;;;;;25.40;11.43;;;;;;;42.36;33.37;101143.91;5004421;28;20426;-71
2022/10/16 10:47:31;;;;;;;23.80;12.87;;;;;;;42.30;33.72;101144.44;5014676;28;20432;-71
2022/10/16 10:50:10;;;;;;;23.27;13.03;;;;;;;42.81;33.04;101132.38;5007857;28;20960;-71
2022/10/16 10:53:10;;;;;;;20.97;11.47;;;;;;;42.65;33.13;101126.72;5002222;28;20432;-71
2022/10/16 10:55:56;;;;;;;22.77;12.00;;;;;;;42.62;33.39;101123.88;5012000;28;20420;-71
2022/10/16 10:58:30;;;;;;;20.80;10.73;;;;;;;42.79;33.38;101125.66;5008761;28;20512;-71
2022/10/16 11:01:10;;;;;;;18.23;13.07;;;;;;;42.57;33.21;101126.75;5010730;28;20479;-72
2022/10/16 11:04:10;;;;;;;25.10;13.47;;;;;;;42.69;33.25;101123.34;5006045;28;20451;-71
2022/10/16 11:06:38;;;;;;;20.53;10.80;;;;;;;42.53;33.32;101123.88;5007559;28;20421;-71
2022/10/16 11:09:31;;;;;;;16.93;11.40;;;;;;;42.61;33.29;101122.28;5010671;28;20453;-71
2022/10/16 11:11:58;;;;;;;26.93;12.73;;;;;;;41.60;34.89;101112.00;5011557;28;20448;-71
2022/10/16 11:14:38;;;;;;;25.00;13.20;;;;;;;41.27;35.60;101109.03;5010924;28;20440;-71
2022/10/16 11:17:11;;;;;;;20.93;12.80;;;;;;;41.79;34.54;101108.91;5010305;28;20456;-72
2022/10/16 11:19:45;;;;;;;23.83;14.57;;;;;;;41.87;34.26;101104.56;5014418;28;20444;-71
2022/10/16 11:22:38;;;;;;;28.57;14.10;;;;;;;42.08;34.18;101094.50;5014854;28;20439;-71
2022/10/16 11:25:22;;;;;;;24.33;13.90;;;;;;;42.45;33.68;101089.31;5015182;28;20974;-70
2022/10/16 11:27:58;;;;;;;18.00;11.10;;;;;;;42.07;34.24;101086.66;5013717;28;21010;-71
2022/10/16 11:30:27;;;;;;;20.10;13.60;;;;;;;42.21;33.60;101089.16;5044298;28;20466;-73
2022/10/16 11:33:11;;;;;;;19.57;12.97;;;;;;;41.94;34.18;101087.69;5053096;28;20805;-72
2022/10/16 11:35:44;;;;;;;19.87;10.60;;;;;;;42.28;33.99;101079.31;5043720;28;20419;-72
2022/10/16 11:38:22;;;;;;;22.03;11.30;;;;;;;42.42;33.26;101079.06;5038717;28;20894;-73
2022/10/16 11:40:53;;;;;;;21.83;13.00;;;;;;;42.20;33.98;101074.72;5013035;28;20946;-72
2022/10/16 11:43:28;;;;;;;17.90;11.97;;;;;;;42.56;33.46;101065.16;5043859;28;20414;-70
2022/10/16 11:46:03;;;;;;;22.60;11.50;;;;;;;42.95;33.12;101074.78;5047281;28;20801;-71
2022/10/16 11:48:41;;;;;;;17.23;11.10;;;;;;;42.30;33.99;101062.66;5049008;28;20454;-73
2022/10/16 11:51:33;;;;;;;17.37;11.27;;;;;;;42.48;33.17;101064.09;5042871;28;20447;-73
2022/10/16 11:54:07;;;;;;;18.57;10.97;;;;;;;42.50;33.06;101061.84;5040568;28;20422;-74
2022/10/16 11:56:39;;;;;;;17.10;9.00;;;;;;;42.67;32.87;101055.47;5039810;28;20526;-73
2022/10/16 11:59:21;;;;;;;22.17;10.23;;;;;;;42.51;33.21;101051.72;5038012;28;20475;-70
2022/10/16 12:01:58;;;;;;;15.27;11.10;;;;;;;42.32;33.59;101052.19;5037092;28;20502;-73
2022/10/16 12:04:32;;;;;;;14.93;9.90;;;;;;;43.07;32.44;101044.81;5035047;28;20430;-71
2022/10/16 12:06:58;;;;;;;23.63;11.60;;;;;;;42.92;32.71;101039.97;5048999;28;20445;-71
2022/10/16 12:09:32;;;;;;;30.53;11.63;;;;;;;42.81;32.97;101041.53;5048494;28;20869;-71
2022/10/16 12:11:58;;;;;;;17.73;10.73;;;;;;;42.65;33.41;101046.81;5042810;28;20458;-73
2022/10/16 12:14:29;;;;;;;20.73;11.80;;;;;;;42.79;33.14;101033.69;5046364;28;20517;-71
2022/10/16 12:17:05;;;;;;;22.30;12.30;;;;;;;42.24;33.96;101021.16;5051036;28;20800;-72
2022/10/16 12:19:33;;;;;;;21.63;9.73;;;;;;;42.32;34.21;101017.53;5036166;28;20564;-70
2022/10/16 12:22:02;;;;;;;45.10;11.93;;;;;;;42.89;33.14;101014.16;5031655;28;20965;-70
2022/10/16 12:24:43;;;;;;;21.03;12.37;;;;;;;42.98;32.90;101011.38;5053055;28;20809;-71